createdAt,value
2019-05-03T00:02:29.179Z,53.20
2019-05-03T00:05:22.470Z,53.30
2019-05-03T00:07:56.035Z,53.40
2019-05-03T00:10:26.884Z,53.50
2019-05-03T00:12:57.776Z,53.70
2019-05-03T00:15:46.266Z,53.80
2019-05-03T00:18:17.257Z,54.00
2019-05-03T00:20:48.134Z,54.00
2019-05-03T00:23:18.945Z,54.20
2019-05-03T00:25:52.325Z,54.30
2019-05-03T00:28:23.670Z,54.50
2019-05-03T00:30:54.530Z,54.50
2019-05-03T00:33:25.943Z,54.80
2019-05-03T00:36:18.736Z,55.00
2019-05-03T00:38:52.476Z,55.20
2019-05-03T00:41:23.433Z,55.20
2019-05-03T00:43:54.840Z,55.40
2019-05-03T00:46:25.763Z,55.50
2019-05-03T00:48:56.697Z,55.60
2019-05-03T00:51:27.554Z,55.80
2019-05-03T00:53:59.321Z,55.80
2019-05-03T00:56:32.054Z,55.90
2019-05-03T00:59:02.678Z,56.10
2019-05-03T01:01:33.720Z,56.20
2019-05-03T01:04:04.767Z,56.30
2019-05-03T01:06:35.669Z,56.50
2019-05-03T01:09:11.808Z,56.60
2019-05-03T01:11:42.825Z,56.70
2019-05-03T01:14:13.696Z,56.70
2019-05-03T01:16:44.689Z,56.90
2019-05-03T01:19:15.610Z,57.00
2019-05-03T01:21:46.537Z,57.10
2019-05-03T01:24:18.400Z,57.30
2019-05-03T01:26:49.716Z,57.30
2019-05-03T01:29:22.660Z,57.40
2019-05-03T01:31:53.175Z,57.60
2019-05-03T01:34:25.159Z,57.80
2019-05-03T01:36:56.029Z,57.80
2019-05-03T01:39:26.924Z,57.90
2019-05-03T01:41:57.841Z,58.00
2019-05-03T01:44:28.743Z,58.10
2019-05-03T01:47:02.754Z,58.20
2019-05-03T01:49:43.868Z,58.20
2019-05-03T01:52:24.795Z,58.30
2019-05-03T01:54:55.766Z,58.50
2019-05-03T01:57:26.704Z,58.60
2019-05-03T01:59:57.942Z,58.80
2019-05-03T02:02:48.108Z,59.00
2019-05-03T02:05:37.901Z,59.00
2019-05-03T02:08:10.096Z,59.60
2019-05-03T02:10:40.910Z,59.00
2019-05-03T02:13:12.819Z,59.20
2019-05-03T02:15:44.041Z,59.30
2019-05-03T02:18:15.278Z,59.50
2019-05-03T02:20:46.111Z,59.70
2019-05-03T02:23:17.369Z,59.80
2019-05-03T02:25:56.164Z,59.90
2019-05-03T02:28:22.025Z,59.90
2019-05-03T02:30:53.626Z,59.90
2019-05-03T02:33:24.605Z,60.10
2019-05-03T02:35:55.849Z,60.40
2019-05-03T02:38:27.293Z,60.60
2019-05-03T02:40:58.202Z,61.00
2019-05-03T02:43:36.967Z,61.10
2019-05-03T02:46:18.514Z,61.30
2019-05-03T02:49:06.402Z,61.30
2019-05-03T02:51:37.472Z,61.50
2019-05-03T02:54:08.668Z,61.50
2019-05-03T02:56:39.549Z,61.60
2019-05-03T02:59:10.416Z,61.90
2019-05-03T03:01:42.324Z,62.00
2019-05-03T03:04:15.761Z,62.20
2019-05-03T03:06:47.401Z,62.30
2019-05-03T03:09:20.644Z,62.50
2019-05-03T03:11:55.790Z,62.60
2019-05-03T03:14:27.741Z,62.70
2019-05-03T03:17:01.682Z,63.50
2019-05-03T03:19:35.335Z,62.70
2019-05-03T03:22:08.579Z,62.90
2019-05-03T03:24:45.523Z,63.00
2019-05-03T03:27:18.882Z,63.10
2019-05-03T03:29:55.285Z,63.30
2019-05-03T03:32:31.729Z,63.50
2019-05-03T03:35:21.832Z,63.70
2019-05-03T03:37:55.773Z,63.80
2019-05-03T03:40:27.988Z,63.80
2019-05-03T03:43:01.770Z,64.10
2019-05-03T03:45:35.961Z,64.20
2019-05-03T03:48:08.133Z,64.30
2019-05-03T03:50:42.001Z,64.50
2019-05-03T03:53:15.270Z,64.60
2019-05-03T03:55:48.031Z,64.70
2019-05-03T03:58:22.714Z,65.00
2019-05-03T04:00:55.352Z,65.20
2019-05-03T04:03:26.227Z,65.40
2019-05-03T04:05:57.219Z,65.40
2019-05-03T04:08:28.093Z,65.30
2019-05-03T04:10:59.096Z,65.50
2019-05-03T04:13:31.389Z,65.60
2019-05-03T04:16:20.921Z,65.70
2019-05-03T04:18:58.317Z,65.70
2019-05-03T04:21:29.244Z,65.80
2019-05-03T04:24:00.480Z,66.10
2019-05-03T04:26:31.398Z,66.10
2019-05-03T04:29:05.388Z,66.20
2019-05-03T04:31:36.739Z,66.30
2019-05-03T04:34:07.887Z,66.40
2019-05-03T04:36:38.703Z,66.40
2019-05-03T04:39:09.608Z,66.60
2019-05-03T04:41:40.889Z,66.60
2019-05-03T04:44:12.032Z,66.90
2019-05-03T04:46:42.979Z,66.90
2019-05-03T04:49:15.144Z,67.00
2019-05-03T04:51:46.689Z,67.10
2019-05-03T04:54:35.933Z,67.10
2019-05-03T04:57:06.961Z,67.10
2019-05-03T04:59:37.854Z,67.10
2019-05-03T05:02:09.077Z,67.00
2019-05-03T05:04:40.420Z,67.10
2019-05-03T05:07:11.325Z,67.00
2019-05-03T05:09:42.481Z,66.90
2019-05-03T05:12:15.872Z,66.90
2019-05-03T05:14:46.036Z,66.70
2019-05-03T05:17:26.364Z,66.60
2019-05-03T05:20:05.188Z,66.50
2019-05-03T05:22:36.078Z,66.50
2019-05-03T05:25:10.632Z,66.40
2019-05-03T05:28:09.468Z,66.60
2019-05-03T05:30:40.559Z,66.40
2019-05-03T05:33:20.775Z,66.30
2019-05-03T05:35:52.272Z,66.30
2019-05-03T05:38:25.301Z,66.30
2019-05-03T05:40:55.689Z,66.10
2019-05-03T05:43:27.590Z,66.20
2019-05-03T05:45:58.991Z,66.30
2019-05-03T05:48:35.682Z,66.70
2019-05-03T05:51:06.593Z,66.80
2019-05-03T05:53:37.521Z,66.90
2019-05-03T05:56:27.323Z,66.90
2019-05-03T05:59:11.801Z,67.20
2019-05-03T06:01:50.638Z,67.40
2019-05-03T06:04:21.747Z,67.50
2019-05-03T06:07:20.448Z,67.70
2019-05-03T06:10:19.042Z,67.80
2019-05-03T06:13:01.255Z,67.90
2019-05-03T06:15:57.530Z,67.90
2019-05-03T06:18:35.362Z,67.90
2019-05-03T06:21:21.454Z,68.00
2019-05-03T06:23:59.800Z,67.90
2019-05-03T06:26:58.496Z,67.50
2019-05-03T06:29:29.540Z,67.00
2019-05-03T06:32:21.777Z,66.90
2019-05-03T06:34:54.599Z,66.90
2019-05-03T06:37:27.391Z,67.10
2019-05-03T06:39:58.394Z,67.00
2019-05-03T06:42:29.348Z,67.00
2019-05-03T06:45:10.113Z,67.10
2019-05-03T06:47:34.818Z,67.10
2019-05-03T06:50:06.470Z,67.30
2019-05-03T06:52:37.446Z,67.80
2019-05-03T06:55:10.537Z,67.90
2019-05-03T06:57:47.736Z,67.70
2019-05-03T07:00:35.069Z,67.70
2019-05-03T07:03:16.526Z,67.90
2019-05-03T07:06:04.934Z,68.00
2019-05-03T07:08:39.681Z,68.00
2019-05-03T07:11:10.608Z,68.00
2019-05-03T07:13:41.496Z,69.20
2019-05-03T07:16:14.840Z,71.60
2019-05-03T07:18:45.605Z,70.60
2019-05-03T07:21:16.719Z,69.30
2019-05-03T07:23:47.677Z,68.10
2019-05-03T07:26:18.626Z,67.20
2019-05-03T07:28:50.223Z,66.60
2019-05-03T07:31:21.162Z,66.50
2019-05-03T07:33:51.983Z,66.80
2019-05-03T07:36:25.923Z,66.80
2019-05-03T07:38:55.664Z,67.40
2019-05-03T07:41:27.270Z,67.60
2019-05-03T07:43:58.617Z,67.40
2019-05-03T07:46:31.768Z,67.60
2019-05-03T07:49:02.419Z,67.40
2019-05-03T07:51:34.825Z,67.40
2019-05-03T07:54:06.065Z,66.90
2019-05-03T07:56:48.167Z,67.20
2019-05-03T07:59:19.261Z,67.20
2019-05-03T08:01:54.536Z,66.40
2019-05-03T08:04:26.147Z,65.90
2019-05-03T08:06:57.945Z,66.00
2019-05-03T08:09:29.217Z,65.60
2019-05-03T08:12:00.322Z,65.40
2019-05-03T08:14:31.328Z,66.00
2019-05-03T08:17:02.358Z,66.20
2019-05-03T08:19:35.525Z,66.20
2019-05-03T08:22:06.183Z,65.70
2019-05-03T08:24:37.019Z,65.20
2019-05-03T08:27:08.165Z,64.60
2019-05-03T08:29:39.103Z,63.50
2019-05-03T08:32:27.866Z,63.10
2019-05-03T08:35:29.484Z,63.50
2019-05-03T08:38:01.457Z,62.50
2019-05-03T08:40:36.825Z,58.80
2019-05-03T08:43:07.686Z,58.40
2019-05-03T08:45:38.516Z,56.30
2019-05-03T08:48:09.483Z,55.10
2019-05-03T08:50:40.408Z,53.60
2019-05-03T08:53:15.337Z,52.60
2019-05-03T08:55:45.878Z,52.20
2019-05-03T08:58:19.694Z,51.70
2019-05-03T09:00:50.592Z,51.70
2019-05-03T09:03:21.425Z,51.40
2019-05-03T09:05:56.200Z,50.70
2019-05-03T09:08:25.991Z,46.20
2019-05-03T09:11:15.859Z,45.50
2019-05-03T09:14:01.528Z,46.30
2019-05-03T09:16:32.725Z,47.40
2019-05-03T09:19:05.401Z,47.60
2019-05-03T09:21:36.047Z,48.10
2019-05-03T09:24:08.033Z,49.10
2019-05-03T09:26:38.884Z,49.60
2019-05-03T09:29:09.799Z,50.60
2019-05-03T09:31:40.724Z,49.40
2019-05-03T09:34:11.603Z,49.70
2019-05-03T09:36:44.782Z,47.40
2019-05-03T09:39:15.451Z,43.90
2019-05-03T09:41:46.337Z,40.10
2019-05-03T09:44:17.155Z,36.20
2019-05-03T09:46:47.983Z,36.80
2019-05-03T09:49:18.948Z,38.00
2019-05-03T09:51:49.805Z,40.30
2019-05-03T09:54:25.865Z,41.80
2019-05-03T09:57:00.136Z,42.40
2019-05-03T09:59:31.460Z,42.10
2019-05-03T10:02:04.805Z,41.90
2019-05-03T10:04:36.619Z,41.70
2019-05-03T10:07:07.697Z,41.00
2019-05-03T10:09:38.973Z,40.60
2019-05-03T10:12:16.190Z,40.50
2019-05-03T10:14:46.923Z,40.80
2019-05-03T10:17:25.437Z,41.40
2019-05-03T10:19:56.365Z,40.90
2019-05-03T10:22:29.319Z,41.30
2019-05-03T10:25:00.286Z,41.90
2019-05-03T10:27:36.679Z,41.70
2019-05-03T10:30:12.956Z,41.50
2019-05-03T10:32:44.955Z,41.10
2019-05-03T10:35:16.871Z,40.80
2019-05-03T10:37:47.802Z,40.40
2019-05-03T10:40:26.632Z,40.50
2019-05-03T10:42:57.633Z,40.70
2019-05-03T10:45:28.661Z,40.50
2019-05-03T10:47:59.487Z,40.20
2019-05-03T10:50:30.493Z,39.70
2019-05-03T10:53:06.463Z,39.60
2019-05-03T10:55:37.439Z,38.60
2019-05-03T10:58:16.929Z,38.70
2019-05-03T11:00:53.340Z,38.70
2019-05-03T11:03:23.027Z,37.90
2019-05-03T11:05:54.834Z,37.80
2019-05-03T11:08:25.783Z,38.30
2019-05-03T11:10:56.753Z,38.30
2019-05-03T11:13:27.903Z,38.30
2019-05-03T11:15:58.768Z,38.30
2019-05-03T11:18:29.686Z,38.20
2019-05-03T11:21:00.598Z,37.60
2019-05-03T11:23:31.490Z,36.60
2019-05-03T11:26:02.358Z,36.00
2019-05-03T11:28:35.249Z,36.90
2019-05-03T11:31:27.430Z,36.90
2019-05-03T11:34:00.384Z,37.20
2019-05-03T11:36:50.423Z,37.30
2019-05-03T11:39:21.608Z,37.00
2019-05-03T11:41:55.737Z,36.00
2019-05-03T11:44:38.798Z,36.10
2019-05-03T11:47:09.831Z,36.40
2019-05-03T11:49:42.031Z,36.80
2019-05-03T11:52:15.564Z,37.10
2019-05-03T11:54:45.537Z,36.80
2019-05-03T11:57:23.993Z,36.80
2019-05-03T11:59:55.952Z,36.30
2019-05-03T12:02:45.805Z,36.20
2019-05-03T12:05:24.466Z,35.70
2019-05-03T12:07:55.713Z,35.70
2019-05-03T12:10:46.086Z,35.50
2019-05-03T12:13:06.856Z,35.50
2019-05-03T12:15:37.712Z,35.30
2019-05-03T12:18:10.384Z,35.50
2019-05-03T12:20:42.384Z,35.70
2019-05-03T12:23:16.273Z,35.70
2019-05-03T12:25:47.131Z,35.80
2019-05-03T12:28:18.344Z,35.90
2019-05-03T12:30:49.343Z,36.00
2019-05-03T12:33:20.225Z,36.20
2019-05-03T12:35:51.559Z,36.20
2019-05-03T12:38:25.337Z,36.00
2019-05-03T12:40:55.286Z,35.80
2019-05-03T12:43:26.105Z,35.80
2019-05-03T12:45:57.877Z,35.50
2019-05-03T12:48:29.009Z,35.50
2019-05-03T12:51:00.282Z,35.60
2019-05-03T12:53:31.472Z,35.80
2019-05-03T12:56:09.849Z,36.00
2019-05-03T12:59:00.633Z,36.10
2019-05-03T13:01:48.614Z,35.90
2019-05-03T13:04:24.979Z,35.90
2019-05-03T13:07:17.682Z,36.20
2019-05-03T13:09:48.601Z,36.80
2019-05-03T13:12:22.364Z,37.30
2019-05-03T13:14:53.588Z,37.90
2019-05-03T13:17:37.450Z,38.30
2019-05-03T13:20:13.976Z,38.60
2019-05-03T13:22:45.969Z,38.50
2019-05-03T13:25:17.130Z,38.60
2019-05-03T13:27:48.509Z,38.30
2019-05-03T13:30:19.643Z,38.30
2019-05-03T13:32:51.796Z,38.50
2019-05-03T13:35:22.841Z,38.40
2019-05-03T13:37:55.634Z,38.50
2019-05-03T13:40:26.672Z,38.30
2019-05-03T13:43:03.563Z,38.30
2019-05-03T13:45:30.213Z,38.30
2019-05-03T13:48:01.251Z,38.20
2019-05-03T13:50:32.220Z,38.20
2019-05-03T13:53:04.854Z,38.30
2019-05-03T13:55:35.967Z,37.90
2019-05-03T13:58:07.007Z,37.60
2019-05-03T14:00:37.984Z,38.00
2019-05-03T14:03:08.892Z,38.00
2019-05-03T14:05:39.803Z,38.10
2019-05-03T14:08:10.686Z,37.90
2019-05-03T14:10:41.797Z,37.80
2019-05-03T14:13:12.669Z,37.80
2019-05-03T14:15:45.303Z,38.20
2019-05-03T14:18:16.339Z,39.60
2019-05-03T14:21:06.189Z,39.60
2019-05-03T14:23:54.472Z,40.70
2019-05-03T14:26:25.419Z,40.30
2019-05-03T14:28:56.674Z,40.80
2019-05-03T14:31:27.569Z,41.20
2019-05-03T14:33:59.416Z,41.40
2019-05-03T14:36:30.431Z,41.20
2019-05-03T14:39:01.338Z,41.00
2019-05-03T14:41:33.843Z,40.90
2019-05-03T14:44:05.018Z,40.80
2019-05-03T14:46:36.363Z,40.90
2019-05-03T14:49:07.691Z,41.00
2019-05-03T14:51:38.602Z,41.00
2019-05-03T14:54:10.109Z,41.20
2019-05-03T14:56:46.691Z,41.10
2019-05-03T14:59:42.528Z,41.00
2019-05-03T15:02:43.609Z,40.90
2019-05-03T15:05:07.800Z,40.80
2019-05-03T15:07:38.747Z,40.80
2019-05-03T15:10:09.866Z,40.70
2019-05-03T15:12:40.767Z,40.70
2019-05-03T15:15:12.011Z,40.70
2019-05-03T15:17:45.563Z,40.80
2019-05-03T15:20:16.454Z,40.80
2019-05-03T15:22:47.416Z,40.80
2019-05-03T15:25:18.459Z,40.80
2019-05-03T15:27:49.460Z,40.80
2019-05-03T15:30:20.382Z,40.80
2019-05-03T15:32:57.835Z,40.80
2019-05-03T15:35:25.747Z,40.80
2019-05-03T15:37:56.362Z,40.70
2019-05-03T15:40:28.091Z,40.70
2019-05-03T15:43:05.523Z,40.70
2019-05-03T15:45:54.539Z,40.80
2019-05-03T15:48:28.039Z,40.80
2019-05-03T15:50:58.953Z,40.90
2019-05-03T15:53:29.931Z,40.90
2019-05-03T15:56:00.819Z,41.10
2019-05-03T15:58:32.017Z,40.90
2019-05-03T16:01:04.702Z,40.90
2019-05-03T16:03:35.851Z,41.20
2019-05-03T16:06:06.773Z,41.50
2019-05-03T16:08:37.643Z,41.90
2019-05-03T16:11:08.875Z,41.90
2019-05-03T16:13:40.110Z,41.90
2019-05-03T16:16:11.007Z,42.20
2019-05-03T16:18:41.882Z,42.40
2019-05-03T16:21:14.455Z,42.60
2019-05-03T16:23:46.758Z,42.90
2019-05-03T16:26:17.611Z,43.10
2019-05-03T16:28:55.226Z,43.10
2019-05-03T16:31:26.733Z,43.20
2019-05-03T16:33:58.560Z,43.20
2019-05-03T16:36:29.492Z,43.30
2019-05-03T16:39:00.442Z,43.40
2019-05-03T16:41:32.995Z,43.20
2019-05-03T16:44:03.911Z,43.00
2019-05-03T16:46:34.913Z,42.90
2019-05-03T16:49:06.537Z,42.90
2019-05-03T16:51:37.603Z,42.90
2019-05-03T16:54:08.629Z,42.90
2019-05-03T16:56:39.550Z,43.00
2019-05-03T16:59:10.415Z,43.00
2019-05-03T17:01:41.304Z,43.00
2019-05-03T17:04:46.312Z,43.10
2019-05-03T17:07:31.142Z,43.20
2019-05-03T17:10:25.424Z,43.20
2019-05-03T17:12:56.895Z,43.20
2019-05-03T17:15:29.268Z,43.30
2019-05-03T17:18:00.061Z,43.50
2019-05-03T17:20:31.192Z,43.50
2019-05-03T17:23:02.190Z,43.70
2019-05-03T17:25:35.021Z,43.90
2019-05-03T17:28:05.712Z,44.10
2019-05-03T17:30:37.376Z,44.20
2019-05-03T17:33:08.396Z,44.40
2019-05-03T17:35:39.299Z,44.60
2019-05-03T17:38:10.239Z,44.90
2019-05-03T17:41:05.902Z,45.10
2019-05-03T17:43:45.157Z,45.50
2019-05-03T17:46:17.138Z,45.50
2019-05-03T17:48:48.086Z,45.80
2019-05-03T17:51:56.038Z,45.80
2019-05-03T17:55:00.783Z,45.90
2019-05-03T17:57:36.872Z,46.00
2019-05-03T18:00:27.084Z,46.00
2019-05-03T18:02:58.232Z,46.20
2019-05-03T18:05:41.596Z,46.20
2019-05-03T18:08:37.295Z,46.30
2019-05-03T18:11:14.741Z,46.40
2019-05-03T18:13:46.763Z,46.40
2019-05-03T18:16:17.592Z,46.70
2019-05-03T18:18:48.543Z,46.70
2019-05-03T18:21:19.419Z,46.80
2019-05-03T18:23:50.346Z,46.90
2019-05-03T18:26:21.202Z,47.10
2019-05-03T18:28:52.041Z,47.10
2019-05-03T18:31:24.879Z,47.20
2019-05-03T18:33:56.366Z,47.40
2019-05-03T18:36:27.197Z,47.30
2019-05-03T18:38:58.003Z,47.50
2019-05-03T18:41:28.875Z,47.60
2019-05-03T18:44:23.273Z,47.80
2019-05-03T18:46:56.605Z,48.00
2019-05-03T18:49:27.510Z,48.10
2019-05-03T18:51:58.705Z,48.30
2019-05-03T18:54:29.518Z,48.50
2019-05-03T18:57:00.591Z,48.70
2019-05-03T18:59:31.421Z,48.90
2019-05-03T19:02:02.306Z,49.10
2019-05-03T19:04:39.838Z,49.20
2019-05-03T19:07:21.810Z,49.30
2019-05-03T19:10:00.869Z,49.40
2019-05-03T19:12:39.385Z,49.60
2019-05-03T19:15:10.982Z,49.60
2019-05-03T19:18:04.392Z,49.60
2019-05-03T19:20:36.653Z,49.70
2019-05-03T19:23:07.596Z,49.80
2019-05-03T19:25:47.017Z,50.00
2019-05-03T19:28:11.033Z,50.10
2019-05-03T19:30:44.402Z,50.20
2019-05-03T19:33:15.391Z,50.40
2019-05-03T19:35:46.413Z,50.50
2019-05-03T19:38:17.276Z,50.70
2019-05-03T19:40:48.107Z,50.80
2019-05-03T19:43:19.077Z,51.00
2019-05-03T19:45:49.888Z,51.10
2019-05-03T19:48:21.067Z,51.30
2019-05-03T19:50:52.029Z,51.50
2019-05-03T19:53:47.847Z,51.70
2019-05-03T19:56:22.969Z,51.70
2019-05-03T19:58:57.999Z,51.70
2019-05-03T20:01:59.731Z,51.90
2019-05-03T20:05:01.315Z,52.20
2019-05-03T20:07:42.033Z,52.20
2019-05-03T20:10:14.652Z,52.40
2019-05-03T20:12:45.350Z,52.40
2019-05-03T20:15:16.329Z,52.50
2019-05-03T20:17:56.556Z,52.60
2019-05-03T20:20:19.605Z,52.60
2019-05-03T20:22:50.548Z,52.80
2019-05-03T20:25:21.429Z,52.80
2019-05-03T20:27:52.366Z,52.90
2019-05-03T20:30:25.332Z,52.90
2019-05-03T20:32:55.879Z,53.00
2019-05-03T20:35:26.809Z,53.00
2019-05-03T20:37:57.663Z,53.20
2019-05-03T20:40:28.545Z,53.20
2019-05-03T20:43:12.460Z,53.30
2019-05-03T20:45:59.734Z,53.40
2019-05-03T20:48:30.747Z,53.30
2019-05-03T20:51:01.674Z,53.40
2019-05-03T20:53:34.415Z,53.40
2019-05-03T20:56:05.485Z,53.50
2019-05-03T20:58:36.320Z,53.50
2019-05-03T21:01:07.224Z,53.60
2019-05-03T21:03:38.145Z,53.70
2019-05-03T21:06:09.051Z,53.90
2019-05-03T21:08:52.288Z,53.90
2019-05-03T21:11:14.768Z,54.00
2019-05-03T21:13:45.796Z,54.10
2019-05-03T21:16:34.543Z,54.10
2019-05-03T21:19:25.889Z,54.20
2019-05-03T21:22:05.537Z,55.00
2019-05-03T21:24:50.674Z,54.50
2019-05-03T21:27:21.528Z,54.60
2019-05-03T21:29:54.993Z,54.60
2019-05-03T21:32:25.414Z,54.70
2019-05-03T21:34:57.349Z,54.80
2019-05-03T21:37:28.159Z,54.90
2019-05-03T21:39:59.275Z,55.00
2019-05-03T21:42:30.129Z,55.20
2019-05-03T21:45:01.119Z,55.30
2019-05-03T21:47:44.121Z,55.30
2019-05-03T21:50:17.178Z,55.40
2019-05-03T21:52:47.981Z,55.50
2019-05-03T21:55:19.192Z,55.40
2019-05-03T21:57:50.047Z,55.70
2019-05-03T22:00:21.176Z,55.70
2019-05-03T22:02:54.636Z,55.70
2019-05-03T22:05:26.520Z,55.70
2019-05-03T22:07:57.334Z,55.90
2019-05-03T22:10:29.191Z,56.00
2019-05-03T22:13:00.160Z,56.00
2019-05-03T22:15:53.790Z,56.00
2019-05-03T22:18:29.354Z,56.00
2019-05-03T22:21:31.301Z,55.90
2019-05-03T22:24:18.566Z,55.90
2019-05-03T22:27:06.599Z,55.80
2019-05-03T22:29:35.829Z,55.90
2019-05-03T22:32:06.627Z,55.80
2019-05-03T22:34:37.564Z,56.00
2019-05-03T22:37:08.551Z,55.90
2019-05-03T22:39:39.465Z,56.00
2019-05-03T22:42:10.270Z,56.00
2019-05-03T22:44:41.061Z,56.00
2019-05-03T22:47:14.606Z,56.00
2019-05-03T22:49:45.747Z,56.00
2019-05-03T22:52:16.537Z,56.00
2019-05-03T22:54:47.511Z,56.20
2019-05-03T22:57:18.644Z,56.10
2019-05-03T22:59:50.488Z,56.10
2019-05-03T23:02:21.372Z,56.20
2019-05-03T23:04:52.260Z,56.30
2019-05-03T23:07:24.872Z,56.30
2019-05-03T23:09:55.833Z,56.30
2019-05-03T23:12:26.719Z,56.30
2019-05-03T23:14:57.563Z,56.30
2019-05-03T23:17:28.411Z,56.40
2019-05-03T23:20:05.094Z,56.30
2019-05-03T23:22:35.988Z,56.50
2019-05-03T23:25:07.084Z,56.50
2019-05-03T23:27:37.955Z,56.60
2019-05-03T23:30:09.539Z,56.60
2019-05-03T23:32:40.471Z,56.60
2019-05-03T23:35:11.546Z,56.70
2019-05-03T23:37:42.440Z,56.70
2019-05-03T23:40:14.833Z,56.70
2019-05-03T23:42:45.752Z,56.80
2019-05-03T23:45:16.632Z,56.90
2019-05-03T23:47:48.760Z,56.90
2019-05-03T23:50:20.891Z,56.90
2019-05-03T23:52:52.087Z,57.00
2019-05-03T23:55:41.875Z,57.10
2019-05-03T23:58:12.758Z,57.10
